Time;durP1;ratioP1;P1;durP2;ratioP2;P2;SDS_P1;SDS_P2;PMS_P1;PMS_P2;Temp;Humidity;BMP_temperature;BMP_pressure;BME280_temperature;BME280_humidity;BME280_pressure;Samples;Min_cycle;Max_cycle;Signal;HPM_P1;HPM_P2
2021/10/12 00:01:57;;;;;;;41.60;34.20;;;;;;;8.72;76.45;100529.05;116356;1195;22924;-75
2021/10/12 00:04:26;;;;;;;40.60;33.40;;;;;;;8.75;76.36;100529.77;116429;1192;22719;-75
2021/10/12 00:06:59;;;;;;;40.60;33.80;;;;;;;8.80;76.43;100523.17;116442;1194;23638;-75
2021/10/12 00:09:29;;;;;;;36.90;32.20;;;;;;;8.84;76.47;100518.77;116299;1194;21956;-76
2021/10/12 00:12:08;;;;;;;35.70;31.90;;;;;;;8.87;76.45;100517.17;116268;1195;23439;-74
2021/10/12 00:14:38;;;;;;;33.90;29.90;;;;;;;8.90;76.49;100519.28;116270;1195;22766;-75
2021/10/12 00:17:07;;;;;;;36.40;31.00;;;;;;;8.93;76.38;100513.93;116462;1190;22050;-75
2021/10/12 00:19:39;;;;;;;34.70;30.90;;;;;;;8.94;76.26;100510.15;116253;1193;21915;-75
2021/10/12 00:22:08;;;;;;;33.20;29.70;;;;;;;8.96;76.32;100509.98;116231;1196;21936;-75
2021/10/12 00:24:37;;;;;;;33.20;29.70;;;;;;;8.98;76.23;100500.13;116255;1195;22223;-75
2021/10/12 00:27:08;;;;;;;34.10;30.10;;;;;;;9.00;76.20;100499.36;116357;1192;23547;-75
2021/10/12 00:29:37;;;;;;;34.60;30.40;;;;;;;9.03;76.34;100493.64;116274;1193;21903;-75
2021/10/12 00:32:13;;;;;;;33.50;30.00;;;;;;;9.07;76.47;100493.97;116527;1191;22817;-75
2021/10/12 00:34:45;;;;;;;33.50;29.90;;;;;;;9.11;76.41;100492.81;116755;1190;21933;-75
2021/10/12 00:37:16;;;;;;;32.30;29.10;;;;;;;9.15;76.33;100491.30;116778;1189;21986;-75
2021/10/12 00:39:53;;;;;;;34.00;30.40;;;;;;;9.19;76.37;100489.75;116565;1188;22927;-75
2021/10/12 00:42:23;;;;;;;32.70;29.30;;;;;;;9.23;76.19;100488.31;116700;1190;21897;-74
2021/10/12 00:44:52;;;;;;;32.50;29.30;;;;;;;9.24;76.11;100483.41;116771;1188;23621;-74
2021/10/12 00:47:23;;;;;;;35.50;31.60;;;;;;;9.26;75.97;100480.27;116768;1190;21901;-75
2021/10/12 00:49:54;;;;;;;38.40;31.20;;;;;;;9.27;75.88;100481.71;116861;1190;23452;-76
2021/10/12 00:52:27;;;;;;;34.00;30.30;;;;;;;9.28;75.88;100481.65;116813;1190;21880;-75
2021/10/12 00:54:56;;;;;;;31.80;28.60;;;;;;;9.29;75.80;100480.51;116786;1182;23438;-75
2021/10/12 00:57:27;;;;;;;35.90;32.20;;;;;;;9.31;75.88;100474.13;116755;1191;21896;-73
2021/10/12 00:59:57;;;;;;;32.00;28.80;;;;;;;9.31;75.89;100472.31;116739;1191;23539;-76
2021/10/12 01:02:30;;;;;;;33.90;30.50;;;;;;;9.33;75.94;100471.96;116558;1190;21878;-74
2021/10/12 01:05:03;;;;;;;30.60;27.50;;;;;;;9.33;75.74;100468.14;117030;1188;22887;-75
2021/10/12 01:07:33;;;;;;;30.90;27.50;;;;;;;9.34;75.70;100465.02;116964;1187;22109;-74
2021/10/12 01:10:07;;;;;;;31.00;27.90;;;;;;;9.34;75.61;100466.56;117053;1188;22040;-75
2021/10/12 01:12:37;;;;;;;31.60;28.10;;;;;;;9.34;75.62;100468.56;117128;1185;22645;-75
2021/10/12 01:15:09;;;;;;;30.20;27.10;;;;;;;9.33;75.54;100466.52;116868;1187;22002;-75
2021/10/12 01:17:39;;;;;;;30.00;27.00;;;;;;;9.31;75.58;100465.98;117058;1188;21891;-75
2021/10/12 01:20:13;;;;;;;29.40;26.40;;;;;;;9.30;75.45;100461.73;116992;1188;21888;-75
2021/10/12 01:22:47;;;;;;;28.40;25.60;;;;;;;9.28;75.48;100460.10;117062;1187;21892;-75
2021/10/12 01:25:19;;;;;;;27.80;24.90;;;;;;;9.28;75.58;100458.95;116791;1179;21888;-75
2021/10/12 01:27:49;;;;;;;;;;;;;;;9.28;75.64;100459.25;116757;1191;23448;-75
2021/10/12 01:30:21;;;;;;;25.60;23.10;;;;;;;9.23;75.81;100457.71;116470;1194;23368;-75
2021/10/12 01:32:53;;;;;;;27.00;24.30;;;;;;;9.22;75.85;100458.16;116456;1194;23444;-75
2021/10/12 01:35:25;;;;;;;26.00;23.60;;;;;;;9.23;75.74;100456.77;116182;1196;21901;-75
2021/10/12 01:37:54;;;;;;;25.80;23.10;;;;;;;9.25;75.81;100455.08;115948;1200;21925;-75
2021/10/12 01:40:23;;;;;;;26.70;24.10;;;;;;;9.26;75.80;100450.67;115952;1200;22536;-75
2021/10/12 01:42:57;;;;;;;27.80;24.90;;;;;;;9.27;75.86;100448.46;115962;1196;21892;-75
2021/10/12 01:45:29;;;;;;;30.00;25.90;;;;;;;9.28;75.86;100448.01;116226;1194;23446;-74
2021/10/12 01:47:58;;;;;;;;;;;;;;;9.28;75.82;100448.34;116387;1193;21876;-75
2021/10/12 01:50:30;;;;;;;29.70;25.00;;;;;;;9.23;76.08;100443.14;116514;1193;23553;-75
2021/10/12 01:52:59;;;;;;;26.40;23.70;;;;;;;9.23;76.16;100440.88;116665;1190;22005;-75
2021/10/12 01:55:31;;;;;;;27.90;25.10;;;;;;;9.23;76.03;100436.77;116786;1191;23438;-75
2021/10/12 01:58:01;;;;;;;27.40;24.60;;;;;;;9.26;76.08;100434.02;116488;1194;21898;-75
2021/10/12 02:00:30;;;;;;;29.00;26.00;;;;;;;9.28;76.14;100434.11;116141;1197;21909;-76
2021/10/12 02:03:00;;;;;;;28.40;25.70;;;;;;;9.31;76.02;100429.25;116094;1195;23541;-74
2021/10/12 02:05:30;;;;;;;29.40;26.50;;;;;;;9.33;76.05;100427.02;116231;1196;24167;-75
2021/10/12 02:08:02;;;;;;;28.00;24.40;;;;;;;9.35;76.15;100423.95;116208;1197;21929;-75
2021/10/12 02:10:31;;;;;;;27.40;24.60;;;;;;;9.36;76.13;100419.61;116274;1196;22025;-75
2021/10/12 02:13:02;;;;;;;29.80;25.60;;;;;;;9.37;76.13;100418.27;116203;1197;21906;-75
2021/10/12 02:15:33;;;;;;;26.50;23.50;;;;;;;9.39;76.23;100419.95;116099;1196;23445;-75
2021/10/12 02:18:03;;;;;;;24.90;22.10;;;;;;;9.41;76.16;100423.61;116468;1192;23471;-74
2021/10/12 02:20:32;;;;;;;26.10;21.80;;;;;;;9.42;76.12;100421.32;116568;1190;21913;-75
2021/10/12 02:23:04;;;;;;;23.10;20.60;;;;;;;9.42;76.09;100419.04;116979;1190;21888;-76
2021/10/12 02:25:36;;;;;;;28.30;21.30;;;;;;;9.42;76.06;100416.89;116780;1190;21911;-76
2021/10/12 02:28:11;;;;;;;25.30;21.30;;;;;;;9.41;75.93;100410.18;116811;1190;21900;-76
2021/10/12 02:30:40;;;;;;;21.70;19.40;;;;;;;9.40;76.04;100404.80;116900;1190;22843;-76
2021/10/12 02:33:11;;;;;;;25.60;21.20;;;;;;;9.40;76.06;100405.33;116864;1188;21930;-76
2021/10/12 02:35:42;;;;;;;23.50;20.40;;;;;;;9.40;76.12;100402.85;117054;1185;22623;-76
2021/10/12 02:38:11;;;;;;;24.50;19.80;;;;;;;9.42;76.18;100399.83;117119;1187;22904;-76
2021/10/12 02:40:41;;;;;;;25.60;22.20;;;;;;;9.44;76.08;100400.45;116905;1187;21888;-75
2021/10/12 02:43:10;;;;;;;25.40;21.30;;;;;;;9.45;75.93;100403.90;117063;1187;21921;-75
2021/10/12 02:45:42;;;;;;;21.80;19.60;;;;;;;9.45;76.01;100399.41;116763;1190;22499;-76
2021/10/12 02:48:11;;;;;;;;;;;;;;;9.43;76.16;100391.46;116928;1189;22343;-76
2021/10/12 02:50:43;;;;;;;23.40;18.50;;;;;;;9.36;76.21;100393.91;116908;1189;21869;-76
2021/10/12 02:53:15;;;;;;;22.80;18.60;;;;;;;9.36;76.22;100395.73;116655;1188;21956;-76
2021/10/12 02:55:45;;;;;;;20.40;18.10;;;;;;;9.39;76.28;100393.65;116621;1192;21899;-74
2021/10/12 02:58:14;;;;;;;17.90;15.90;;;;;;;9.41;76.25;100388.33;116697;1192;22735;-75
2021/10/12 03:00:44;;;;;;;18.80;15.60;;;;;;;9.43;76.36;100394.11;116621;1192;23623;-74
2021/10/12 03:03:13;;;;;;;20.10;17.40;;;;;;;9.46;76.33;100389.98;116784;1190;22632;-74
2021/10/12 03:05:46;;;;;;;17.20;15.40;;;;;;;9.48;76.32;100389.93;116867;1190;21912;-75
2021/10/12 03:08:15;;;;;;;18.40;16.50;;;;;;;9.51;76.25;100389.02;116847;1184;21760;-74
2021/10/12 03:10:47;;;;;;;20.30;17.30;;;;;;;9.54;76.16;100387.38;116912;1188;22137;-75
2021/10/12 03:13:16;;;;;;;20.70;15.90;;;;;;;9.56;76.10;100387.68;117090;1181;22636;-75
2021/10/12 03:15:45;;;;;;;18.40;15.50;;;;;;;9.56;76.00;100386.30;116966;1187;24048;-75
2021/10/12 03:18:14;;;;;;;19.40;16.70;;;;;;;9.55;75.94;100380.20;117175;1184;21876;-75
2021/10/12 03:20:46;;;;;;;16.90;15.20;;;;;;;9.55;75.97;100379.84;117072;1187;22831;-75
2021/10/12 03:23:23;;;;;;;20.60;16.60;;;;;;;9.55;75.98;100378.67;117129;1188;21921;-75
2021/10/12 03:26:08;;;;;;;22.90;18.90;;;;;;;9.54;75.95;100378.20;117169;1187;21906;-76
2021/10/12 03:29:05;;;;;;;21.20;19.00;;;;;;;9.52;76.01;100374.02;117356;1191;21885;-76
2021/10/12 03:31:42;;;;;;;21.10;18.80;;;;;;;9.52;75.97;100376.83;117291;1191;21908;-76
2021/10/12 03:34:23;;;;;;;24.40;21.80;;;;;;;9.53;76.07;100376.20;117153;1183;21884;-76
2021/10/12 03:37:09;;;;;;;23.10;20.80;;;;;;;9.54;76.08;100369.08;117239;1191;23468;-75
2021/10/12 03:39:39;;;;;;;24.20;21.70;;;;;;;9.56;76.14;100366.71;116761;1191;21896;-75
2021/10/12 03:42:08;;;;;;;22.70;20.40;;;;;;;9.57;76.10;100369.78;116477;1193;21885;-75
2021/10/12 03:44:37;;;;;;;21.50;19.40;;;;;;;9.58;76.22;100369.85;116325;1196;22814;-75
2021/10/12 03:47:07;;;;;;;19.70;17.60;;;;;;;9.58;76.15;100366.15;116358;1193;21894;-75
2021/10/12 03:49:38;;;;;;;19.30;16.30;;;;;;;9.58;76.08;100366.70;116232;1196;21984;-75
2021/10/12 03:52:10;;;;;;;18.50;16.70;;;;;;;9.58;76.09;100363.19;116440;1196;22928;-75
2021/10/12 03:54:39;;;;;;;22.40;17.40;;;;;;;9.57;76.18;100361.66;116183;1195;23448;-75
2021/10/12 03:57:08;;;;;;;23.10;17.40;;;;;;;9.58;76.13;100363.52;116142;1196;23508;-75
2021/10/12 03:59:37;;;;;;;21.70;16.20;;;;;;;9.58;76.13;100363.58;116163;1198;21921;-75
2021/10/12 04:02:06;;;;;;;20.20;16.30;;;;;;;9.58;76.18;100362.11;115999;1198;23669;-75
2021/10/12 04:04:39;;;;;;;19.80;17.60;;;;;;;9.58;76.09;100363.22;116213;1197;21888;-76
2021/10/12 04:07:32;;;;;;;17.00;15.30;;;;;;;9.55;76.10;100362.95;116310;1184;23575;-76
2021/10/12 04:10:04;;;;;;;16.30;14.70;;;;;;;9.54;76.05;100363.46;116819;1191;23561;-77
2021/10/12 04:12:34;;;;;;;18.20;16.40;;;;;;;9.53;76.13;100364.66;116650;1188;23498;-75
2021/10/12 04:15:05;;;;;;;17.00;15.10;;;;;;;9.52;76.06;100365.23;117024;1184;22906;-74
2021/10/12 04:17:34;;;;;;;15.40;13.90;;;;;;;9.52;76.01;100366.52;117078;1188;21888;-74
2021/10/12 04:20:05;;;;;;;16.50;13.90;;;;;;;9.51;75.99;100367.86;116835;1188;22904;-74
2021/10/12 04:22:36;;;;;;;17.60;14.10;;;;;;;9.48;75.96;100365.60;117567;1187;21872;-75
2021/10/12 04:25:36;;;;;;;16.90;13.40;;;;;;;9.46;75.99;100360.39;117447;1187;21876;-75
2021/10/12 04:28:47;;;;;;;17.80;10.70;;;;;;;9.44;75.77;100352.54;117328;1190;22551;-75
2021/10/12 04:31:59;;;;;;;18.20;11.00;;;;;;;9.39;75.81;100345.27;116907;1194;22869;-75
2021/10/12 04:34:46;;;;;;;12.60;8.90;;;;;;;9.38;75.79;100340.33;116649;1198;21918;-75
2021/10/12 04:37:21;;;;;;;11.00;7.30;;;;;;;9.36;75.63;100339.42;116517;1197;21908;-75
2021/10/12 04:39:55;;;;;;;13.90;8.00;;;;;;;9.37;75.63;100337.61;116176;1197;21916;-76
2021/10/12 04:42:24;;;;;;;10.40;7.10;;;;;;;9.39;75.54;100333.02;115570;1201;21932;-75
2021/10/12 04:45:05;;;;;;;10.50;7.00;;;;;;;9.39;75.33;100325.83;115978;1200;21957;-75
2021/10/12 04:47:38;;;;;;;14.20;9.20;;;;;;;9.39;75.18;100323.89;116179;1198;22821;-75
2021/10/12 04:50:23;;;;;;;13.40;9.50;;;;;;;9.37;75.05;100321.08;116356;1197;21951;-75
2021/10/12 04:52:55;;;;;;;13.80;9.30;;;;;;;9.36;74.96;100322.03;116232;1194;22858;-76
2021/10/12 04:55:30;;;;;;;13.80;9.30;;;;;;;9.36;74.95;100321.77;116447;1190;21917;-76
2021/10/12 04:58:00;;;;;;;12.80;9.10;;;;;;;9.35;74.75;100318.44;116592;1193;21914;-76
2021/10/12 05:00:32;;;;;;;14.20;8.50;;;;;;;9.34;74.71;100319.80;116625;1192;23436;-74
2021/10/12 05:03:18;;;;;;;17.80;8.10;;;;;;;9.32;74.72;100318.42;116716;1187;21928;-75
2021/10/12 05:05:57;;;;;;;;;;;;;;;9.32;74.58;100324.81;116841;1187;21873;-74
2021/10/12 05:08:33;;;;;;;12.50;7.80;;;;;;;9.23;74.69;100321.52;116593;1181;21945;-75
2021/10/12 05:11:05;;;;;;;12.60;8.10;;;;;;;9.22;74.83;100322.11;116872;1192;22913;-75
2021/10/12 05:13:40;;;;;;;6.90;5.90;;;;;;;9.23;74.77;100321.16;116706;1192;22753;-75
2021/10/12 05:16:19;;;;;;;13.20;7.20;;;;;;;9.23;74.60;100322.00;116477;1193;22960;-76
2021/10/12 05:19:00;;;;;;;10.60;6.90;;;;;;;9.23;74.48;100321.82;116484;1195;21905;-76
2021/10/12 05:21:33;;;;;;;12.60;7.10;;;;;;;9.23;74.40;100319.91;116461;1193;22910;-74
2021/10/12 05:24:08;;;;;;;;;;;;;;;9.24;74.47;100319.98;116502;1190;23026;-74
2021/10/12 05:26:41;;;;;;;16.80;9.10;;;;;;;9.18;74.52;100323.42;116557;1187;21917;-74
2021/10/12 05:29:12;;;;;;;13.40;9.20;;;;;;;9.17;74.54;100325.23;116853;1190;22914;-74
2021/10/12 05:31:42;;;;;;;17.90;9.80;;;;;;;9.20;74.55;100326.72;116874;1190;21912;-74
2021/10/12 05:34:11;;;;;;;15.20;9.30;;;;;;;9.23;74.63;100325.38;116845;1188;22630;-74
2021/10/12 05:36:40;;;;;;;18.10;9.40;;;;;;;9.25;74.52;100326.37;116980;1188;23916;-73
2021/10/12 05:39:10;;;;;;;12.20;9.30;;;;;;;9.28;74.43;100324.18;116950;1187;21928;-73
2021/10/12 05:41:39;;;;;;;12.10;8.50;;;;;;;9.30;74.51;100319.95;117095;1188;24267;-72
2021/10/12 05:44:08;;;;;;;12.00;8.10;;;;;;;9.31;74.29;100317.00;117031;1188;23498;-78
2021/10/12 05:46:37;;;;;;;12.10;8.30;;;;;;;9.30;74.14;100313.94;116828;1187;21903;-75
2021/10/12 05:49:07;;;;;;;11.90;7.30;;;;;;;9.29;73.95;100315.61;117041;1188;22641;-75
2021/10/12 05:51:37;;;;;;;13.00;7.10;;;;;;;9.28;73.91;100319.27;117097;1188;23334;-80
2021/10/12 05:54:07;;;;;;;10.10;8.00;;;;;;;9.27;73.85;100323.71;117192;1187;22944;-76
2021/10/12 05:56:43;;;;;;;11.00;7.50;;;;;;;9.29;73.88;100323.91;116882;1188;21879;-77
2021/10/12 05:59:12;;;;;;;11.20;8.60;;;;;;;9.30;73.97;100326.90;116891;1184;21884;-75
2021/10/12 06:01:42;;;;;;;16.90;9.50;;;;;;;9.35;74.09;100329.38;116936;1184;21908;-74
2021/10/12 06:04:12;;;;;;;15.20;8.00;;;;;;;9.40;74.18;100331.06;117066;1188;21898;-75
2021/10/12 06:06:42;;;;;;;12.50;9.10;;;;;;;9.45;73.95;100328.19;116739;1191;23593;-75
2021/10/12 06:09:11;;;;;;;15.30;12.60;;;;;;;9.48;73.80;100328.26;116797;1191;21933;-75
2021/10/12 06:11:41;;;;;;;17.10;11.80;;;;;;;9.49;73.76;100329.64;116471;1193;21889;-76
2021/10/12 06:14:10;;;;;;;17.80;11.40;;;;;;;9.53;73.81;100328.73;116450;1193;23433;-76
2021/10/12 06:16:40;;;;;;;12.70;7.90;;;;;;;9.55;73.60;100331.51;116463;1193;21900;-74
2021/10/12 06:19:10;;;;;;;11.20;8.10;;;;;;;9.57;73.61;100333.92;116314;1193;22636;-74
2021/10/12 06:21:39;;;;;;;12.50;7.10;;;;;;;9.59;73.63;100333.90;116250;1196;22149;-74
2021/10/12 06:24:08;;;;;;;12.10;7.70;;;;;;;9.62;73.47;100333.80;116396;1193;21891;-79
2021/10/12 06:26:39;;;;;;;11.10;7.90;;;;;;;9.64;73.34;100335.14;116293;1196;22920;-75
2021/10/12 06:29:08;;;;;;;10.50;7.10;;;;;;;9.67;73.25;100337.30;116451;1193;21899;-74
2021/10/12 06:31:38;;;;;;;12.50;8.00;;;;;;;9.70;73.22;100337.86;116477;1190;22900;-74
2021/10/12 06:34:07;;;;;;;10.20;6.10;;;;;;;9.72;73.03;100339.75;116452;1190;21895;-74
2021/10/12 06:36:39;;;;;;;10.40;6.80;;;;;;;9.72;72.94;100336.23;116477;1193;21896;-74
2021/10/12 06:39:08;;;;;;;;;;;;;;;9.71;72.86;100338.06;116297;1196;22181;-74
2021/10/12 06:41:38;;;;;;;10.60;7.10;;;;;;;9.65;72.94;100338.73;116375;1196;23633;-74
2021/10/12 06:44:17;;;;;;;13.30;7.60;;;;;;;9.65;72.94;100339.23;116354;1184;23068;-76
2021/10/12 06:46:46;;;;;;;11.00;7.40;;;;;;;9.70;72.87;100341.06;116767;1191;23426;-74
2021/10/12 06:49:15;;;;;;;12.10;6.90;;;;;;;9.73;72.83;100341.97;116705;1191;22347;-75
2021/10/12 06:51:44;;;;;;;13.40;7.70;;;;;;;9.76;72.63;100344.73;116706;1187;23045;-74
2021/10/12 06:54:20;;;;;;;13.40;8.10;;;;;;;9.80;72.41;100346.41;116765;1191;21899;-74
2021/10/12 06:56:49;;;;;;;9.30;7.70;;;;;;;9.83;72.16;100346.67;116702;1188;22346;-74
2021/10/12 06:59:19;;;;;;;13.40;7.50;;;;;;;9.85;72.06;100343.27;117132;1187;21884;-73
2021/10/12 07:01:48;;;;;;;10.80;7.10;;;;;;;9.87;71.98;100338.09;117134;1187;23437;-74
2021/10/12 07:04:20;;;;;;;12.70;8.10;;;;;;;9.90;71.63;100326.25;117034;1187;21897;-74
2021/10/12 07:06:49;;;;;;;12.30;7.30;;;;;;;9.91;71.60;100325.22;117180;1181;21944;-74
2021/10/12 07:09:19;;;;;;;10.40;6.40;;;;;;;9.94;71.52;100327.53;116881;1187;21890;-74
2021/10/12 07:11:48;;;;;;;10.40;7.00;;;;;;;9.99;71.47;100330.05;117055;1187;23649;-75
2021/10/12 07:14:17;;;;;;;11.90;7.90;;;;;;;10.07;71.84;100334.40;116902;1187;23469;-75
2021/10/12 07:16:47;;;;;;;13.90;7.60;;;;;;;10.20;71.94;100338.09;116828;1184;22237;-75
2021/10/12 07:19:16;;;;;;;12.30;6.70;;;;;;;10.29;71.39;100338.41;116831;1189;23437;-76
2021/10/12 07:21:49;;;;;;;12.00;7.50;;;;;;;10.32;70.80;100339.84;116811;1188;21907;-75
2021/10/12 07:24:18;;;;;;;16.30;8.70;;;;;;;10.34;70.52;100343.01;116807;1190;21906;-74
2021/10/12 07:26:49;;;;;;;16.10;7.40;;;;;;;10.34;70.21;100347.70;116846;1188;23669;-73
2021/10/12 07:29:18;;;;;;;13.50;6.70;;;;;;;10.35;70.02;100346.94;116807;1190;22199;-74
2021/10/12 07:31:47;;;;;;;12.60;6.20;;;;;;;10.32;69.79;100344.72;116904;1188;21968;-73
2021/10/12 07:34:16;;;;;;;13.40;6.80;;;;;;;10.26;69.28;100349.60;116872;1188;21894;-73
2021/10/12 07:36:46;;;;;;;11.10;6.90;;;;;;;10.21;69.25;100350.54;117043;1188;22911;-75
2021/10/12 07:39:15;;;;;;;14.40;7.00;;;;;;;10.18;69.47;100347.30;117022;1187;21901;-74
2021/10/12 07:41:48;;;;;;;11.90;6.50;;;;;;;10.18;69.29;100346.10;117085;1188;22121;-74
2021/10/12 07:44:17;;;;;;;10.90;5.80;;;;;;;10.17;69.14;100340.77;116755;1191;22925;-74
2021/10/12 07:46:46;;;;;;;14.20;7.10;;;;;;;10.15;69.15;100341.95;116513;1191;23590;-74
2021/10/12 07:49:15;;;;;;;10.90;6.10;;;;;;;10.16;69.15;100342.96;116694;1191;22930;-74
2021/10/12 07:51:45;;;;;;;12.50;7.20;;;;;;;10.16;69.04;100339.25;116572;1190;21872;-74
2021/10/12 07:54:18;;;;;;;11.60;6.30;;;;;;;10.15;68.81;100337.10;116765;1184;21985;-73
2021/10/12 07:56:48;;;;;;;13.10;6.50;;;;;;;10.13;68.65;100338.98;116621;1190;23513;-75
2021/10/12 07:59:18;;;;;;;18.60;7.60;;;;;;;10.12;68.58;100334.60;116747;1191;21987;-74
2021/10/12 08:01:47;;;;;;;8.60;5.10;;;;;;;10.13;68.69;100332.73;116536;1190;23581;-74
2021/10/12 08:04:17;;;;;;;9.90;4.80;;;;;;;10.16;68.81;100332.39;116745;1187;22342;-75
2021/10/12 08:06:46;;;;;;;13.40;5.90;;;;;;;10.18;68.75;100330.96;116754;1191;23556;-76
2021/10/12 08:09:16;;;;;;;10.40;6.50;;;;;;;10.19;68.73;100325.23;116647;1191;24136;-76
2021/10/12 08:11:47;;;;;;;12.30;5.50;;;;;;;10.22;68.67;100320.90;116791;1184;21907;-76
2021/10/12 08:14:20;;;;;;;16.80;8.40;;;;;;;10.22;68.61;100319.26;116769;1190;21891;-76
2021/10/12 08:16:49;;;;;;;12.70;6.80;;;;;;;10.23;68.33;100318.83;116730;1191;21871;-76
2021/10/12 08:19:19;;;;;;;16.70;8.60;;;;;;;10.20;68.16;100321.01;116761;1184;23438;-76
2021/10/12 08:21:52;;;;;;;15.20;8.50;;;;;;;10.17;68.04;100318.50;116756;1191;21895;-76
2021/10/12 08:24:27;;;;;;;13.60;6.70;;;;;;;10.15;68.00;100315.80;116502;1191;21990;-75
2021/10/12 08:26:56;;;;;;;12.40;6.60;;;;;;;10.18;68.40;100312.32;116528;1191;23540;-76
2021/10/12 08:29:27;;;;;;;9.30;5.80;;;;;;;10.25;68.50;100308.02;116857;1191;22919;-76
2021/10/12 08:31:56;;;;;;;15.90;7.50;;;;;;;10.34;68.58;100302.14;116605;1190;23510;-77
2021/10/12 08:34:26;;;;;;;10.20;7.10;;;;;;;10.40;68.36;100303.09;116561;1193;23573;-76
2021/10/12 08:36:58;;;;;;;16.00;8.40;;;;;;;10.43;67.72;100307.91;116483;1192;22888;-76
2021/10/12 08:39:31;;;;;;;13.20;7.10;;;;;;;10.45;67.68;100303.58;116469;1193;24152;-76
2021/10/12 08:42:18;;;;;;;12.50;6.20;;;;;;;10.46;67.44;100303.02;116559;1187;21897;-77
2021/10/12 08:45:20;;;;;;;12.90;6.70;;;;;;;10.41;67.17;100303.13;116782;1191;21890;-76
2021/10/12 08:47:51;;;;;;;9.60;5.00;;;;;;;10.39;67.14;100302.17;116325;1195;22914;-76
2021/10/12 08:50:24;;;;;;;10.60;6.40;;;;;;;10.36;66.97;100302.56;116323;1195;23549;-76
2021/10/12 08:52:54;;;;;;;8.30;5.20;;;;;;;10.38;67.01;100302.08;116496;1195;22363;-75
2021/10/12 08:55:23;;;;;;;9.90;5.90;;;;;;;10.38;66.92;100298.55;116436;1195;21888;-75
2021/10/12 08:57:54;;;;;;;7.40;4.50;;;;;;;10.43;67.04;100299.26;116490;1193;21903;-78
2021/10/12 09:00:41;;;;;;;9.00;4.60;;;;;;;10.50;67.08;100295.05;116308;1196;21891;-75
2021/10/12 09:03:19;;;;;;;6.80;3.90;;;;;;;10.64;67.14;100286.89;116300;1193;21891;-74
2021/10/12 09:06:00;;;;;;;6.60;2.90;;;;;;;10.86;67.27;100276.30;116476;1192;23629;-76
2021/10/12 09:08:38;;;;;;;6.40;3.70;;;;;;;11.11;66.64;100276.14;116804;1191;23464;-76
2021/10/12 09:11:22;;;;;;;9.90;3.90;;;;;;;11.38;66.16;100273.81;116739;1191;22344;-76
2021/10/12 09:14:04;;;;;;;6.30;3.60;;;;;;;11.65;65.34;100268.92;116778;1191;21884;-74
2021/10/12 09:16:43;;;;;;;9.80;4.40;;;;;;;11.89;64.38;100259.29;116883;1191;22637;-75
2021/10/12 09:19:16;;;;;;;7.30;4.10;;;;;;;12.06;63.21;100252.00;116734;1191;24153;-73
2021/10/12 09:21:59;;;;;;;;;;;;;;;12.21;62.76;100250.15;116607;1191;22029;-73
2021/10/12 09:24:36;;;;;;;8.10;3.40;;;;;;;12.35;62.48;100245.98;116608;1191;21893;-75
2021/10/12 09:27:10;;;;;;;8.20;4.00;;;;;;;12.55;62.21;100243.77;116751;1190;21885;-73
2021/10/12 09:29:46;;;;;;;10.40;4.50;;;;;;;12.80;61.57;100243.05;116799;1191;22679;-75
2021/10/12 09:32:22;;;;;;;13.80;7.00;;;;;;;12.97;59.99;100238.13;116553;1184;22910;-74
2021/10/12 09:35:02;;;;;;;7.30;3.80;;;;;;;13.12;59.37;100232.30;116729;1191;23489;-74
2021/10/12 09:37:31;;;;;;;6.60;3.40;;;;;;;13.31;58.97;100229.80;116812;1187;23139;-73
2021/10/12 09:40:18;;;;;;;9.50;3.20;;;;;;;13.50;58.45;100231.02;116572;1192;22195;-74
2021/10/12 09:42:47;;;;;;;7.70;3.70;;;;;;;13.59;57.36;100233.42;116833;1192;21903;-74
2021/10/12 09:45:18;;;;;;;6.90;3.40;;;;;;;13.59;56.62;100227.59;117004;1177;22945;-73
2021/10/12 09:47:48;;;;;;;6.50;3.10;;;;;;;13.53;56.19;100216.63;116962;1188;22906;-74
2021/10/12 09:50:17;;;;;;;6.00;3.00;;;;;;;13.50;56.05;100211.91;117109;1188;22061;-74
2021/10/12 09:52:46;;;;;;;7.60;3.30;;;;;;;13.64;57.20;100209.95;117054;1188;24139;-73
2021/10/12 09:55:37;;;;;;;7.20;3.70;;;;;;;14.00;57.16;100205.29;116994;1188;21879;-73
2021/10/12 09:58:08;;;;;;;6.40;3.40;;;;;;;14.34;56.56;100203.30;117005;1188;24225;-73
2021/10/12 10:00:37;;;;;;;8.00;3.50;;;;;;;14.57;54.79;100199.44;117144;1188;21974;-74
2021/10/12 10:03:06;;;;;;;7.60;2.80;;;;;;;14.56;53.04;100194.98;116688;1191;22620;-73
2021/10/12 10:05:36;;;;;;;7.70;3.00;;;;;;;14.37;52.12;100198.11;116806;1191;21912;-74
2021/10/12 10:08:05;;;;;;;6.50;3.20;;;;;;;14.15;52.18;100197.58;116741;1191;23706;-74
2021/10/12 10:10:45;;;;;;;4.20;2.70;;;;;;;13.93;52.61;100189.06;116722;1191;23757;-73
2021/10/12 10:13:18;;;;;;;8.60;3.70;;;;;;;13.87;53.76;100186.08;116719;1191;22950;-73
2021/10/12 10:15:49;;;;;;;7.60;3.40;;;;;;;14.03;54.56;100185.04;116472;1194;21895;-73
2021/10/12 10:18:19;;;;;;;6.50;4.00;;;;;;;14.25;54.31;100184.04;116500;1194;21906;-73
2021/10/12 10:20:51;;;;;;;7.40;5.00;;;;;;;14.40;53.60;100177.36;116535;1191;22791;-73
2021/10/12 10:23:50;;;;;;;9.20;4.00;;;;;;;14.46;52.96;100173.56;116874;1188;23422;-73
2021/10/12 10:26:41;;;;;;;7.50;3.90;;;;;;;14.49;52.77;100175.70;116619;1190;21878;-73
2021/10/12 10:29:28;;;;;;;9.90;5.10;;;;;;;14.46;51.98;100170.20;116431;1194;21911;-74
2021/10/12 10:32:22;;;;;;;7.40;4.40;;;;;;;14.26;51.78;100168.51;116501;1193;23033;-74
2021/10/12 10:35:03;;;;;;;10.10;4.00;;;;;;;14.41;54.03;100162.49;116561;1193;23455;-74
2021/10/12 10:37:34;;;;;;;9.20;4.00;;;;;;;14.95;54.81;100154.64;116491;1192;22767;-74
2021/10/12 10:40:30;;;;;;;8.80;4.00;;;;;;;15.31;52.61;100147.84;116548;1193;21917;-74
2021/10/12 10:43:01;;;;;;;8.00;3.90;;;;;;;15.32;50.24;100145.02;116539;1193;22021;-73
2021/10/12 10:45:50;;;;;;;5.50;3.80;;;;;;;15.18;49.56;100141.18;116474;1193;21904;-74
2021/10/12 10:48:21;;;;;;;6.10;3.70;;;;;;;14.95;49.29;100137.21;116610;1192;21909;-71
2021/10/12 10:51:21;;;;;;;9.00;3.40;;;;;;;14.76;49.55;100128.38;116745;1192;21901;-73
2021/10/12 10:53:51;;;;;;;26.80;22.70;;;;;;;14.59;49.86;100123.51;116529;1192;21942;-74
2021/10/12 10:56:22;;;;;;;16.10;12.90;;;;;;;14.43;50.04;100121.22;116403;1194;21887;-73
2021/10/12 10:59:24;;;;;;;7.20;5.30;;;;;;;14.26;50.27;100113.36;116219;1197;21930;-74
2021/10/12 11:01:55;;;;;;;9.80;4.90;;;;;;;14.10;50.62;100109.81;116352;1190;22666;-73
2021/10/12 11:04:43;;;;;;;7.90;4.70;;;;;;;13.93;50.66;100106.29;116344;1195;21922;-74
2021/10/12 11:07:23;;;;;;;21.30;7.20;;;;;;;13.67;50.86;100103.41;116492;1190;21928;-76
2021/10/12 11:09:57;;;;;;;14.50;6.00;;;;;;;13.43;51.28;100096.59;116474;1190;22641;-74
2021/10/12 11:12:31;;;;;;;11.30;7.10;;;;;;;13.25;52.12;100089.75;116498;1193;22180;-75
2021/10/12 11:15:08;;;;;;;11.60;6.80;;;;;;;13.15;52.45;100090.45;116651;1191;23629;-74
2021/10/12 11:17:38;;;;;;;9.00;6.20;;;;;;;12.99;52.71;100089.59;117040;1176;21921;-74
2021/10/12 11:20:12;;;;;;;11.20;5.30;;;;;;;12.83;53.38;100089.80;117018;1188;21888;-75
2021/10/12 11:22:44;;;;;;;6.60;4.40;;;;;;;12.71;53.79;100091.05;116920;1188;21901;-74
2021/10/12 11:25:13;;;;;;;9.80;4.50;;;;;;;12.61;54.10;100087.17;117099;1187;23434;-74
2021/10/12 11:27:44;;;;;;;6.10;4.30;;;;;;;12.53;54.67;100082.30;116926;1187;23478;-74
2021/10/12 11:30:16;;;;;;;7.30;4.10;;;;;;;12.43;54.81;100079.47;117135;1188;22907;-75
2021/10/12 11:32:55;;;;;;;7.10;3.90;;;;;;;12.29;55.07;100077.84;116906;1187;21877;-75
2021/10/12 11:35:37;;;;;;;4.70;3.60;;;;;;;12.15;55.26;100083.64;116832;1190;23000;-74
2021/10/12 11:38:10;;;;;;;8.60;4.70;;;;;;;12.03;55.95;100082.77;116788;1192;21910;-74
2021/10/12 11:40:39;;;;;;;8.30;4.50;;;;;;;11.96;56.67;100077.25;116788;1190;21911;-74
2021/10/12 11:43:08;;;;;;;6.60;3.80;;;;;;;11.94;56.99;100077.02;116757;1190;21906;-74